Time;durP1;ratioP1;P1;durP2;ratioP2;P2;SDS_P1;SDS_P2;PMS_P1;PMS_P2;Temp;Humidity;BMP_temperature;BMP_pressure;BME280_temperature;BME280_humidity;BME280_pressure;Samples;Min_cycle;Max_cycle;Signal;HPM_P1;HPM_P2
2022/11/01 00:01:51;;;;;;;;;;;7.00;99.90;;;;;;5054661;28;19909;-73
2022/11/01 00:04:18;;;;;;;;;;;7.00;99.90;;;;;;5054681;28;20374;-74
2022/11/01 00:06:44;;;;;;;;;;;7.00;99.90;;;;;;5055167;28;19913;-74
2022/11/01 00:09:09;;;;;;;;;;;7.00;99.90;;;;;;5054542;28;19970;-73
2022/11/01 00:11:35;;;;;;;;;;;6.90;99.90;;;;;;5054743;28;20016;-74
2022/11/01 00:14:01;;;;;;;;;;;6.80;99.90;;;;;;5054795;28;19924;-73
2022/11/01 00:16:26;;;;;;;;;;;6.70;99.90;;;;;;5054471;28;19912;-74
2022/11/01 00:18:52;;;;;;;;;;;6.70;99.90;;;;;;5054759;28;20281;-74
2022/11/01 00:21:17;;;;;;;;;;;6.70;99.90;;;;;;5054374;28;19990;-74
2022/11/01 00:23:44;;;;;;;;;;;6.70;99.90;;;;;;5054262;28;19921;-74
2022/11/01 00:26:14;;;;;;;;;;;6.70;99.90;;;;;;5054256;28;19938;-74
2022/11/01 00:28:39;;;;;;;;;;;6.60;99.90;;;;;;5054574;28;20015;-74
2022/11/01 00:31:05;;;;;;;;;;;6.60;99.90;;;;;;5054276;28;20035;-74
2022/11/01 00:33:30;;;;;;;;;;;6.60;99.90;;;;;;5054344;28;19938;-74
2022/11/01 00:35:59;;;;;;;;;;;6.60;99.90;;;;;;5054183;28;19917;-74
2022/11/01 00:38:24;;;;;;;;;;;6.60;99.90;;;;;;5053990;28;19915;-74
2022/11/01 00:40:50;;;;;;;;;;;6.60;99.90;;;;;;5054390;28;20280;-74
2022/11/01 00:43:15;;;;;;;;;;;6.60;99.90;;;;;;5053927;28;19936;-74
2022/11/01 00:45:44;;;;;;;;;;;6.60;99.90;;;;;;5053998;28;19920;-74
2022/11/01 00:48:10;;;;;;;;;;;6.60;99.90;;;;;;5053957;28;20355;-74
2022/11/01 00:50:36;;;;;;;;;;;6.60;99.90;;;;;;5054146;28;19951;-74
2022/11/01 00:53:01;;;;;;;;;;;6.60;99.90;;;;;;5053808;28;19917;-74
2022/11/01 00:55:27;;;;;;;;;;;6.60;99.90;;;;;;5053908;28;19913;-74
2022/11/01 00:57:52;;;;;;;;;;;6.60;99.90;;;;;;5053881;28;19908;-74
2022/11/01 01:00:18;;;;;;;;;;;6.50;99.90;;;;;;5054105;28;19912;-74
2022/11/01 01:02:44;;;;;;;;;;;6.50;99.90;;;;;;5035792;28;19959;-73
2022/11/01 01:05:09;;;;;;;;;;;6.50;99.90;;;;;;5053752;28;20004;-74
2022/11/01 01:07:35;;;;;;;;;;;6.50;99.90;;;;;;5053690;28;19959;-74
2022/11/01 01:10:00;;;;;;;;;;;6.40;99.90;;;;;;5054108;28;19913;-74
2022/11/01 01:12:26;;;;;;;;;;;6.40;99.90;;;;;;5053782;28;19924;-73
2022/11/01 01:14:52;;;;;;;;;;;6.40;99.90;;;;;;5053588;28;19908;-74
2022/11/01 01:17:17;;;;;;;;;;;6.30;99.90;;;;;;5053614;28;19916;-75
2022/11/01 01:19:43;;;;;;;;;;;6.30;99.90;;;;;;5053630;28;19913;-74
2022/11/01 01:22:09;;;;;;;;;;;6.30;99.90;;;;;;5036201;28;19913;-73
2022/11/01 01:24:34;;;;;;;;;;;6.30;99.90;;;;;;5053552;28;19952;-74
2022/11/01 01:27:00;;;;;;;;;;;6.30;99.90;;;;;;5053535;28;19908;-74
2022/11/01 01:29:25;;;;;;;;;;;6.30;99.90;;;;;;5053368;28;19913;-74
2022/11/01 01:31:51;;;;;;;;;;;6.20;99.90;;;;;;5053643;28;19909;-73
2022/11/01 01:34:17;;;;;;;;;;;6.20;99.90;;;;;;5053416;28;20400;-74
2022/11/01 01:36:43;;;;;;;;;;;6.10;99.90;;;;;;5035503;28;20254;-74
2022/11/01 01:39:08;;;;;;;;;;;6.10;99.90;;;;;;5053521;28;19909;-74
2022/11/01 01:44:37;;;;;;;;;;;6.00;99.90;;;;;;5054041;28;19919;-73
2022/11/01 01:47:02;;;;;;;;;;;5.90;99.90;;;;;;5053840;28;19909;-74
2022/11/01 01:49:28;;;;;;;;;;;5.90;99.90;;;;;;5035732;28;20359;-74
2022/11/01 01:51:54;;;;;;;;;;;5.80;99.90;;;;;;5036021;28;19959;-73
2022/11/01 01:54:19;;;;;;;;;;;5.80;99.90;;;;;;5053847;28;19919;-74
2022/11/01 01:56:45;;;;;;;;;;;5.80;99.90;;;;;;5053293;28;19919;-74
2022/11/01 01:59:11;;;;;;;;;;;5.80;99.90;;;;;;5053194;28;19912;-74
2022/11/01 02:01:38;;;;;;;;;;;5.80;99.90;;;;;;5053392;28;19966;-73
2022/11/01 02:04:07;;;;;;;;;;;5.80;99.90;;;;;;5051862;28;20027;-73
2022/11/01 02:06:34;;;;;;;;;;;5.80;99.90;;;;;;5052950;28;19917;-73
2022/11/01 02:09:02;;;;;;;;;;;5.80;99.90;;;;;;5052815;28;19920;-73
2022/11/01 02:11:27;;;;;;;;;;;5.80;99.90;;;;;;5054417;28;19913;-72
2022/11/01 02:13:53;;;;;;;;;;;5.80;99.90;;;;;;5056496;28;19928;-73
2022/11/01 02:16:31;;;;;;;;;;;5.80;99.90;;;;;;5056629;28;19913;-73
2022/11/01 02:19:02;;;;;;;;;;;5.70;99.90;;;;;;5056348;28;19908;-73
2022/11/01 02:21:42;;;;;;;;;;;5.80;99.90;;;;;;5055992;28;20285;-73
2022/11/01 02:24:10;;;;;;;;;;;5.80;99.90;;;;;;5056462;28;19909;-73
2022/11/01 02:26:59;;;;;;;;;;;5.70;99.90;;;;;;5055622;28;19909;-73
2022/11/01 02:29:43;;;;;;;;;;;5.60;99.90;;;;;;5056334;28;20358;-73
2022/11/01 02:32:27;;;;;;;;;;;5.60;99.90;;;;;;5056217;28;20262;-73
2022/11/01 02:34:58;;;;;;;;;;;5.60;99.90;;;;;;5053537;28;20357;-72
2022/11/01 02:37:28;;;;;;;;;;;5.60;99.90;;;;;;5055625;28;19909;-72
2022/11/01 02:39:56;;;;;;;;;;;5.60;99.90;;;;;;5055715;28;19915;-72
2022/11/01 02:42:27;;;;;;;;;;;5.60;99.90;;;;;;5055574;28;19908;-73
2022/11/01 02:45:07;;;;;;;;;;;5.50;99.90;;;;;;5037795;28;19915;-72
2022/11/01 02:47:34;;;;;;;;;;;5.50;99.90;;;;;;5056401;28;19916;-73
2022/11/01 02:50:01;;;;;;;;;;;5.50;99.90;;;;;;5056058;28;19964;-74
2022/11/01 02:52:29;;;;;;;;;;;5.50;99.90;;;;;;5055998;28;19919;-73
2022/11/01 02:54:56;;;;;;;;;;;5.50;99.90;;;;;;5056081;28;19909;-74
2022/11/01 02:57:21;;;;;;;;;;;5.40;99.90;;;;;;5038148;28;19948;-74
2022/11/01 02:59:47;;;;;;;;;;;5.40;99.90;;;;;;5055951;28;19944;-74
2022/11/01 03:02:17;;;;;;;;;;;5.40;99.90;;;;;;5055855;28;20388;-73
2022/11/01 03:04:43;;;;;;;;;;;5.40;99.90;;;;;;5056123;28;19916;-74
2022/11/01 03:07:10;;;;;;;;;;;5.40;99.90;;;;;;5055818;28;19913;-74
2022/11/01 03:09:36;;;;;;;;;;;5.40;99.90;;;;;;5056022;28;19913;-74
2022/11/01 03:12:06;;;;;;;;;;;5.40;99.90;;;;;;5055826;28;19927;-73
2022/11/01 03:14:34;;;;;;;;;;;5.30;99.90;;;;;;5037797;28;19916;-74
2022/11/01 03:17:06;;;;;;;;;;;5.30;99.90;;;;;;5055894;28;19968;-73
2022/11/01 03:19:37;;;;;;;;;;;5.30;99.90;;;;;;5055569;28;19909;-74
2022/11/01 03:22:15;;;;;;;;;;;5.30;99.90;;;;;;5037225;28;19913;-73
2022/11/01 03:24:53;;;;;;;;;;;5.30;99.90;;;;;;5037533;28;19909;-73
2022/11/01 03:27:18;;;;;;;;;;;5.30;99.90;;;;;;5055448;28;19909;-73
2022/11/01 03:29:47;;;;;;;;;;;5.30;99.90;;;;;;5055341;28;19920;-74
2022/11/01 03:32:14;;;;;;;;;;;5.30;99.90;;;;;;5055287;28;19908;-72
2022/11/01 03:34:40;;;;;;;;;;;5.30;99.90;;;;;;5055609;28;19913;-73
2022/11/01 03:37:08;;;;;;;;;;;5.30;99.90;;;;;;5037466;28;19920;-73
2022/11/01 03:39:44;;;;;;;;;;;5.20;99.90;;;;;;5055443;28;19909;-73
2022/11/01 03:42:15;;;;;;;;;;;5.30;99.90;;;;;;5055109;28;19909;-72
2022/11/01 03:44:42;;;;;;;;;;;5.30;99.90;;;;;;5055462;28;20288;-74
2022/11/01 03:47:09;;;;;;;;;;;5.30;99.90;;;;;;5055099;28;19913;-74
2022/11/01 03:49:34;;;;;;;;;;;5.30;99.90;;;;;;5055235;28;20268;-73
2022/11/01 03:52:00;;;;;;;;;;;5.30;99.90;;;;;;5037029;28;19931;-72
2022/11/01 03:54:27;;;;;;;;;;;5.30;99.90;;;;;;5055190;28;20353;-72
2022/11/01 03:56:53;;;;;;;;;;;5.30;99.90;;;;;;5037428;28;19913;-73
2022/11/01 03:59:19;;;;;;;;;;;5.20;99.90;;;;;;5054824;28;19924;-73
2022/11/01 04:01:44;;;;;;;;;;;5.20;99.90;;;;;;5054712;28;19919;-72
2022/11/01 04:04:10;;;;;;;;;;;5.20;99.90;;;;;;5054746;28;20003;-73
2022/11/01 04:06:36;;;;;;;;;;;5.20;99.90;;;;;;5055269;28;20381;-73
2022/11/01 04:09:01;;;;;;;;;;;5.10;99.90;;;;;;5054872;28;19919;-73
2022/11/01 04:11:27;;;;;;;;;;;5.10;99.90;;;;;;5054598;28;19963;-73
2022/11/01 04:20:31;;;;;;;;;;;5.00;99.90;;;;;;5054440;28;19921;-72
2022/11/01 04:22:06;;;;;;;;;;;5.00;99.90;;;;;;5055074;28;19920;-72
2022/11/01 04:24:31;;;;;;;;;;;5.00;99.90;;;;;;5036503;28;19913;-73
2022/11/01 04:26:57;;;;;;;;;;;5.00;99.90;;;;;;5036764;28;19913;-74
2022/11/01 04:29:22;;;;;;;;;;;4.90;99.90;;;;;;5054212;28;20007;-73
2022/11/01 04:31:48;;;;;;;;;;;4.80;99.90;;;;;;5054204;28;19913;-73
2022/11/01 04:34:40;;;;;;;;;;;4.70;99.90;;;;;;5035649;28;20103;-73
2022/11/01 04:36:59;;;;;;;;;;;4.70;99.90;;;;;;5054003;28;19917;-73
2022/11/01 04:39:24;;;;;;;;;;;4.70;99.90;;;;;;5054115;28;20475;-73
2022/11/01 04:41:50;;;;;;;;;;;4.70;99.90;;;;;;5054176;28;20348;-72
2022/11/01 04:44:15;;;;;;;;;;;4.70;99.90;;;;;;5054398;28;20431;-73
2022/11/01 04:46:41;;;;;;;;;;;4.70;99.90;;;;;;5053991;28;19912;-73
2022/11/01 04:49:07;;;;;;;;;;;4.70;99.90;;;;;;5036004;28;19917;-73
2022/11/01 04:51:32;;;;;;;;;;;4.70;99.90;;;;;;5053887;28;19913;-73
2022/11/01 04:53:58;;;;;;;;;;;4.70;99.90;;;;;;5054068;28;19912;-72
2022/11/01 04:56:23;;;;;;;;;;;4.80;99.90;;;;;;5053832;28;19921;-73
2022/11/01 04:58:49;;;;;;;;;;;4.80;99.90;;;;;;5054099;28;19916;-73
2022/11/01 05:01:14;;;;;;;;;;;4.80;99.90;;;;;;5054285;28;19913;-73
2022/11/01 05:03:40;;;;;;;;;;;4.80;99.90;;;;;;5053748;28;19990;-72
2022/11/01 05:06:05;;;;;;;;;;;4.80;99.90;;;;;;5053946;28;19909;-72
2022/11/01 05:08:31;;;;;;;;;;;4.80;99.90;;;;;;5053648;28;19913;-73
2022/11/01 05:10:57;;;;;;;;;;;4.80;99.90;;;;;;5053643;28;19913;-73
2022/11/01 05:13:23;;;;;;;;;;;4.70;99.90;;;;;;5035776;28;19921;-73
2022/11/01 05:15:48;;;;;;;;;;;4.70;99.90;;;;;;5053622;28;19909;-73
2022/11/01 05:18:14;;;;;;;;;;;4.60;99.90;;;;;;5053506;28;19912;-73
2022/11/01 05:20:39;;;;;;;;;;;4.60;99.90;;;;;;5053536;28;19932;-73
2022/11/01 05:23:05;;;;;;;;;;;4.70;99.90;;;;;;5053438;28;19917;-73
2022/11/01 05:25:31;;;;;;;;;;;4.70;99.90;;;;;;5053508;28;19995;-73
2022/11/01 05:27:57;;;;;;;;;;;4.70;99.90;;;;;;5053764;28;20000;-73
2022/11/01 05:30:22;;;;;;;;;;;4.70;99.90;;;;;;5053573;28;19917;-73
2022/11/01 05:32:48;;;;;;;;;;;4.80;99.90;;;;;;5036085;28;19913;-72
2022/11/01 05:35:14;;;;;;;;;;;4.80;99.90;;;;;;5053575;28;19920;-73
2022/11/01 05:37:39;;;;;;;;;;;4.70;99.90;;;;;;5036164;28;19962;-73
2022/11/01 05:40:05;;;;;;;;;;;4.80;99.90;;;;;;5053625;28;19948;-73
2022/11/01 05:42:31;;;;;;;;;;;4.80;99.90;;;;;;5053294;28;19963;-72
2022/11/01 05:44:56;;;;;;;;;;;4.80;99.90;;;;;;5036945;28;19913;-73
2022/11/01 05:47:22;;;;;;;;;;;4.80;99.90;;;;;;5057604;28;19913;-73
2022/11/01 05:49:47;;;;;;;;;;;4.80;99.90;;;;;;5057184;28;19967;-73
2022/11/01 05:52:13;;;;;;;;;;;4.80;99.90;;;;;;5039582;28;19963;-72
2022/11/01 05:54:39;;;;;;;;;;;4.80;99.90;;;;;;5039353;28;19917;-73
2022/11/01 05:57:04;;;;;;;;;;;4.80;99.90;;;;;;5057119;28;19958;-73
2022/11/01 05:59:30;;;;;;;;;;;4.80;99.90;;;;;;5057366;28;19955;-73
2022/11/01 06:01:56;;;;;;;;;;;4.70;99.90;;;;;;5057513;28;20239;-72
2022/11/01 06:04:22;;;;;;;;;;;4.70;99.90;;;;;;5056999;28;19912;-73
2022/11/01 06:06:47;;;;;;;;;;;4.80;99.90;;;;;;5056928;28;20258;-73
2022/11/01 06:09:13;;;;;;;;;;;4.80;99.90;;;;;;5038967;28;20282;-73
2022/11/01 06:11:38;;;;;;;;;;;4.80;99.90;;;;;;5057006;28;19952;-73
2022/11/01 06:14:04;;;;;;;;;;;4.80;99.90;;;;;;5057022;28;19923;-72
2022/11/01 06:16:29;;;;;;;;;;;4.80;99.90;;;;;;5057043;28;19924;-73
2022/11/01 06:18:55;;;;;;;;;;;4.80;99.90;;;;;;5056636;28;19913;-73
2022/11/01 06:21:21;;;;;;;;;;;4.80;99.90;;;;;;5056699;28;19919;-73
2022/11/01 06:23:49;;;;;;;;;;;4.80;99.90;;;;;;5039160;28;19962;-72
2022/11/01 06:26:15;;;;;;;;;;;4.80;99.90;;;;;;5056590;28;19944;-73
2022/11/01 06:28:40;;;;;;;;;;;4.80;99.90;;;;;;5056421;28;19909;-73
2022/11/01 06:31:06;;;;;;;;;;;4.70;99.90;;;;;;5038620;28;19957;-73
2022/11/01 06:33:31;;;;;;;;;;;4.70;99.90;;;;;;5056463;28;19936;-72
2022/11/01 06:35:57;;;;;;;;;;;4.70;99.90;;;;;;5038554;28;19913;-73
2022/11/01 06:38:22;;;;;;;;;;;4.70;99.90;;;;;;5056376;28;19948;-73
2022/11/01 06:40:48;;;;;;;;;;;4.80;99.90;;;;;;5056281;28;19920;-73
2022/11/01 06:43:14;;;;;;;;;;;4.80;99.90;;;;;;5056129;28;20372;-72
2022/11/01 06:45:40;;;;;;;;;;;4.90;99.90;;;;;;5056483;28;19917;-73
2022/11/01 06:48:05;;;;;;;;;;;4.90;99.90;;;;;;5038376;28;20262;-73
2022/11/01 06:50:31;;;;;;;;;;;5.00;99.90;;;;;;5056014;28;20258;-73
2022/11/01 06:52:57;;;;;;;;;;;5.00;99.90;;;;;;5038219;28;19935;-72
2022/11/01 06:55:23;;;;;;;;;;;5.10;99.90;;;;;;5055967;28;19920;-73
2022/11/01 06:57:53;;;;;;;;;;;5.10;99.90;;;;;;5055569;28;19913;-72
2022/11/01 07:00:18;;;;;;;;;;;5.10;99.90;;;;;;5056164;28;19978;-73
2022/11/01 07:02:44;;;;;;;;;;;5.20;99.90;;;;;;5037942;28;20364;-73
2022/11/01 07:05:09;;;;;;;;;;;5.20;99.90;;;;;;5038012;28;19959;-73
2022/11/01 07:07:35;;;;;;;;;;;5.30;99.90;;;;;;5056058;28;19920;-73
2022/11/01 07:10:00;;;;;;;;;;;5.30;99.90;;;;;;5055661;28;19917;-73
2022/11/01 07:12:26;;;;;;;;;;;5.40;99.90;;;;;;5055766;28;19925;-72
2022/11/01 07:14:52;;;;;;;;;;;5.40;99.90;;;;;;5056438;28;19966;-72
2022/11/01 07:17:17;;;;;;;;;;;5.50;99.90;;;;;;5055889;28;19920;-73
2022/11/01 07:19:43;;;;;;;;;;;5.60;99.90;;;;;;5056112;28;20346;-73
2022/11/01 07:22:08;;;;;;;;;;;5.60;99.90;;;;;;5055768;28;19920;-72
2022/11/01 07:24:34;;;;;;;;;;;5.70;99.90;;;;;;5056077;28;19912;-73
2022/11/01 07:27:00;;;;;;;;;;;5.80;99.90;;;;;;5055449;28;19917;-73
2022/11/01 07:29:25;;;;;;;;;;;5.80;99.90;;;;;;5037884;28;19920;-72
2022/11/01 07:31:51;;;;;;;;;;;5.80;99.90;;;;;;5037782;28;19912;-72
2022/11/01 07:34:16;;;;;;;;;;;5.90;99.90;;;;;;5037269;28;20396;-72
2022/11/01 07:36:42;;;;;;;;;;;5.90;99.90;;;;;;5055818;28;20361;-73
2022/11/01 07:39:07;;;;;;;;;;;6.00;99.90;;;;;;5055173;28;19912;-73
2022/11/01 07:41:33;;;;;;;;;;;6.00;99.90;;;;;;5055391;28;19908;-73
2022/11/01 07:43:59;;;;;;;;;;;6.10;99.90;;;;;;5055037;28;19920;-72
2022/11/01 07:46:24;;;;;;;;;;;6.10;99.90;;;;;;5055401;28;19920;-72
2022/11/01 07:48:50;;;;;;;;;;;6.20;99.90;;;;;;5055162;28;19913;-72
2022/11/01 07:51:16;;;;;;;;;;;6.20;99.90;;;;;;5054968;28;19962;-73
2022/11/01 07:53:42;;;;;;;;;;;6.30;99.90;;;;;;5036913;28;19978;-72
2022/11/01 07:56:07;;;;;;;;;;;6.40;99.90;;;;;;5054873;28;19912;-73
2022/11/01 07:58:33;;;;;;;;;;;6.40;99.90;;;;;;5037002;28;19913;-73
2022/11/01 08:00:59;;;;;;;;;;;6.50;99.90;;;;;;5054732;28;19919;-73
2022/11/01 08:03:25;;;;;;;;;;;6.50;99.90;;;;;;5054863;28;19998;-72
2022/11/01 08:05:50;;;;;;;;;;;6.60;99.90;;;;;;5054655;28;19913;-73
2022/11/01 08:08:16;;;;;;;;;;;6.80;99.90;;;;;;5053863;28;19913;-73
2022/11/01 08:10:42;;;;;;;;;;;6.80;99.90;;;;;;5054497;28;19920;-73
2022/11/01 08:13:18;;;;;;;;;;;7.00;99.90;;;;;;5054565;28;19927;-73
2022/11/01 08:15:44;;;;;;;;;;;7.10;99.90;;;;;;5036549;28;19962;-73
2022/11/01 08:18:10;;;;;;;;;;;7.20;99.90;;;;;;5054676;28;20262;-73
2022/11/01 08:20:35;;;;;;;;;;;7.30;99.90;;;;;;5054366;28;19967;-72
2022/11/01 08:23:01;;;;;;;;;;;7.40;99.90;;;;;;5036465;28;19913;-72
2022/11/01 08:25:27;;;;;;;;;;;7.40;99.90;;;;;;5036792;28;19923;-73
2022/11/01 08:27:52;;;;;;;;;;;7.60;99.90;;;;;;5054542;28;19916;-73
2022/11/01 08:30:18;;;;;;;;;;;7.60;99.90;;;;;;5054140;28;20071;-73
2022/11/01 08:32:44;;;;;;;;;;;7.70;99.90;;;;;;5036148;28;20058;-73
2022/11/01 08:35:13;;;;;;;;;;;7.80;99.90;;;;;;5054144;28;20373;-73
2022/11/01 08:37:48;;;;;;;;;;;7.90;99.90;;;;;;5037036;28;19960;-72
2022/11/01 08:40:14;;;;;;;;;;;8.00;99.90;;;;;;5036137;28;19916;-72
2022/11/01 08:42:39;;;;;;;;;;;8.10;99.90;;;;;;5054190;28;19917;-72
2022/11/01 08:45:05;;;;;;;;;;;8.20;99.90;;;;;;5054558;28;19913;-73
2022/11/01 08:47:31;;;;;;;;;;;8.30;99.90;;;;;;5054249;28;19980;-73
2022/11/01 08:49:56;;;;;;;;;;;8.30;99.90;;;;;;5035982;28;19986;-73
2022/11/01 08:52:22;;;;;;;;;;;8.30;99.90;;;;;;5035972;28;20328;-72
2022/11/01 08:54:48;;;;;;;;;;;8.40;99.90;;;;;;5053800;28;19913;-73
2022/11/01 08:57:14;;;;;;;;;;;8.40;99.90;;;;;;5053794;28;19964;-73
2022/11/01 08:59:40;;;;;;;;;;;8.40;99.90;;;;;;5019600;28;19960;-73
2022/11/01 09:02:08;;;;;;;;;;;8.40;99.90;;;;;;5053709;28;19956;-72
2022/11/01 09:04:33;;;;;;;;;;;8.50;99.90;;;;;;5053950;28;20344;-73
2022/11/01 09:06:59;;;;;;;;;;;8.40;99.90;;;;;;5053698;28;19917;-72
2022/11/01 09:09:25;;;;;;;;;;;8.50;99.90;;;;;;5053870;28;19917;-73
2022/11/01 09:11:51;;;;;;;;;;;8.50;99.90;;;;;;5053458;28;19920;-73
2022/11/01 09:14:19;;;;;;;;;;;8.50;99.90;;;;;;5054202;28;19913;-73
2022/11/01 09:16:44;;;;;;;;;;;8.50;99.90;;;;;;5053850;28;19909;-73
2022/11/01 09:19:10;;;;;;;;;;;8.50;99.90;;;;;;5035326;28;19913;-73
2022/11/01 09:21:35;;;;;;;;;;;8.60;99.90;;;;;;5053492;28;19913;-72
2022/11/01 09:24:01;;;;;;;;;;;8.60;99.90;;;;;;5053401;28;19919;-72
2022/11/01 09:26:27;;;;;;;;;;;8.70;99.90;;;;;;5053727;28;19917;-73
2022/11/01 09:28:53;;;;;;;;;;;8.70;99.90;;;;;;5053370;28;19913;-72
2022/11/01 09:31:19;;;;;;;;;;;8.80;99.90;;;;;;5053380;28;19915;-72
2022/11/01 09:33:45;;;;;;;;;;;9.00;99.90;;;;;;5035479;28;19913;-72
2022/11/01 09:36:10;;;;;;;;;;;9.10;99.90;;;;;;5035863;28;19951;-73
2022/11/01 09:38:36;;;;;;;;;;;9.20;99.90;;;;;;5053319;28;19913;-73
2022/11/01 09:41:07;;;;;;;;;;;9.30;99.90;;;;;;5053328;28;19913;-73
2022/11/01 09:43:34;;;;;;;;;;;9.40;99.90;;;;;;5053545;28;20284;-73
2022/11/01 09:46:01;;;;;;;;;;;9.50;99.90;;;;;;5053733;28;19967;-73
2022/11/01 09:48:28;;;;;;;;;;;9.60;99.90;;;;;;5053277;28;19966;-73
2022/11/01 09:50:54;;;;;;;;;;;9.70;99.90;;;;;;5053426;28;19913;-75
2022/11/01 09:53:20;;;;;;;;;;;9.80;99.90;;;;;;5053123;28;19913;-73
2022/11/01 09:55:46;;;;;;;;;;;9.90;99.90;;;;;;5053065;28;19916;-74
2022/11/01 09:58:20;;;;;;;;;;;10.00;99.90;;;;;;5053653;28;19908;-73
2022/11/01 10:00:52;;;;;;;;;;;10.10;99.90;;;;;;5035202;28;19909;-74
2022/11/01 10:03:33;;;;;;;;;;;10.20;99.90;;;;;;5053323;28;19994;-73
2022/11/01 10:06:17;;;;;;;;;;;10.20;99.90;;;;;;5053020;28;19944;-73
2022/11/01 10:09:01;;;;;;;;;;;10.30;99.90;;;;;;5053480;28;20039;-73
2022/11/01 10:11:50;;;;;;;;;;;10.50;99.90;;;;;;5053524;28;19952;-73
2022/11/01 10:14:18;;;;;;;;;;;10.70;99.90;;;;;;5052953;28;19952;-73
2022/11/01 10:16:52;;;;;;;;;;;10.80;99.90;;;;;;5035138;28;19955;-74
2022/11/01 10:19:20;;;;;;;;;;;11.00;99.90;;;;;;5053249;28;20285;-74
2022/11/01 10:21:51;;;;;;;;;;;11.10;99.90;;;;;;5052780;28;19909;-73
2022/11/01 10:24:20;;;;;;;;;;;11.20;99.90;;;;;;5035574;28;20297;-71
2022/11/01 10:26:46;;;;;;;;;;;11.40;99.90;;;;;;5052889;28;20412;-71
2022/11/01 10:29:12;;;;;;;;;;;11.60;99.90;;;;;;5034882;28;19924;-71
2022/11/01 10:31:43;;;;;;;;;;;11.70;99.90;;;;;;5053586;28;19909;-71
2022/11/01 10:34:15;;;;;;;;;;;11.90;99.90;;;;;;5056439;28;19909;-70
2022/11/01 10:36:43;;;;;;;;;;;12.00;99.90;;;;;;5056655;28;19909;-71
2022/11/01 10:39:16;;;;;;;;;;;12.10;99.90;;;;;;5056355;28;19973;-70
2022/11/01 10:41:45;;;;;;;;;;;12.20;99.90;;;;;;5056608;28;20009;-72
2022/11/01 10:44:17;;;;;;;;;;;12.40;99.90;;;;;;5055003;28;19909;-71
2022/11/01 10:46:45;;;;;;;;;;;12.50;99.90;;;;;;5056184;28;19909;-71
2022/11/01 10:49:30;;;;;;;;;;;12.60;99.90;;;;;;5056392;28;19920;-71
2022/11/01 10:51:58;;;;;;;;;;;12.80;99.90;;;;;;5056264;28;19916;-71
2022/11/01 10:54:25;;;;;;;;;;;12.90;99.90;;;;;;5038137;28;20361;-71
2022/11/01 10:56:53;;;;;;;;;;;13.00;99.90;;;;;;5056042;28;19916;-70
2022/11/01 10:59:24;;;;;;;;;;;13.10;99.90;;;;;;5055994;28;19991;-70
2022/11/01 11:01:51;;;;;;;;;;;13.20;99.90;;;;;;5055910;28;19959;-71
2022/11/01 11:04:20;;;;;;;;;;;13.30;99.90;;;;;;5055898;28;20343;-70
2022/11/01 11:06:45;;;;;;;;;;;13.40;99.90;;;;;;5055796;28;19916;-70
2022/11/01 11:09:23;;;;;;;;;;;13.50;99.90;;;;;;5056215;28;19917;-70
2022/11/01 11:11:49;;;;;;;;;;;13.60;99.90;;;;;;5055562;28;19915;-71
2022/11/01 11:14:17;;;;;;;;;;;13.60;99.90;;;;;;5056022;28;19913;-70
2022/11/01 11:16:47;;;;;;;;;;;13.70;99.90;;;;;;5055627;28;19909;-70
2022/11/01 11:19:18;;;;;;;;;;;13.70;99.90;;;;;;5055842;28;19909;-70
2022/11/01 11:21:45;;;;;;;;;;;13.90;99.90;;;;;;5055778;28;19909;-70
2022/11/01 11:24:18;;;;;;;;;;;14.00;99.90;;;;;;5055855;28;19909;-70
2022/11/01 11:26:45;;;;;;;;;;;14.00;99.90;;;;;;5055730;28;19909;-70
2022/11/01 11:29:15;;;;;;;;;;;14.00;99.90;;;;;;5055704;28;19952;-70
2022/11/01 11:31:41;;;;;;;;;;;14.10;99.90;;;;;;5055333;28;20377;-70
2022/11/01 11:34:13;;;;;;;;;;;14.10;99.90;;;;;;5055225;28;19913;-69
2022/11/01 11:36:41;;;;;;;;;;;14.10;99.90;;;;;;5055776;28;19912;-70
2022/11/01 11:39:22;;;;;;;;;;;14.20;99.90;;;;;;5055113;28;19909;-70
2022/11/01 11:41:47;;;;;;;;;;;14.30;99.90;;;;;;5055309;28;19909;-70
2022/11/01 11:44:36;;;;;;;;;;;14.40;99.90;;;;;;5037046;28;19908;-69
2022/11/01 11:47:02;;;;;;;;;;;14.60;99.90;;;;;;5054926;28;20391;-70
2022/11/01 11:49:28;;;;;;;;;;;14.80;99.90;;;;;;5055223;28;19917;-69
2022/11/01 11:51:54;;;;;;;;;;;14.90;99.90;;;;;;5054849;28;19967;-70
2022/11/01 11:54:21;;;;;;;;;;;15.00;99.90;;;;;;5055484;28;20364;-69
2022/11/01 11:56:49;;;;;;;;;;;15.10;99.90;;;;;;5054150;28;19913;-70
2022/11/01 11:59:27;;;;;;;;;;;15.20;99.90;;;;;;5054608;28;20365;-69
2022/11/01 12:02:00;;;;;;;;;;;15.30;99.90;;;;;;5036668;28;19921;-69
2022/11/01 12:04:38;;;;;;;;;;;15.40;99.90;;;;;;5053763;28;20345;-70
2022/11/01 12:07:10;;;;;;;;;;;15.50;99.90;;;;;;5054541;28;19958;-69
2022/11/01 12:09:44;;;;;;;;;;;15.60;99.90;;;;;;5054479;28;19943;-69
2022/11/01 12:12:22;;;;;;;;;;;15.70;99.90;;;;;;5053278;28;19920;-69
2022/11/01 12:14:47;;;;;;;;;;;15.80;99.90;;;;;;5036372;28;19909;-69
2022/11/01 12:17:22;;;;;;;;;;;15.80;99.90;;;;;;5053719;28;19913;-69
2022/11/01 12:19:47;;;;;;;;;;;16.00;99.90;;;;;;5054278;28;19916;-69
2022/11/01 12:22:13;;;;;;;;;;;16.00;99.90;;;;;;5054248;28;19913;-69
2022/11/01 12:24:44;;;;;;;;;;;16.10;99.90;;;;;;5054242;28;19915;-69
2022/11/01 12:27:15;;;;;;;;;;;16.10;99.90;;;;;;5036107;28;19917;-69
2022/11/01 12:29:46;;;;;;;;;;;16.10;99.90;;;;;;5054029;28;20003;-69
2022/11/01 12:32:32;;;;;;;;;;;16.10;99.90;;;;;;5036061;28;19908;-68
2022/11/01 12:35:00;;;;;;;;;;;16.30;99.90;;;;;;5035820;28;19916;-71
2022/11/01 12:37:31;;;;;;;;;;;16.70;99.90;;;;;;5053895;28;19915;-69
2022/11/01 12:40:11;;;;;;;;;;;16.90;99.90;;;;;;5053960;28;19909;-69
2022/11/01 12:42:42;;;;;;;;;;;17.00;99.90;;;;;;5053608;28;19916;-69
2022/11/01 12:45:18;;;;;;;;;;;17.10;99.50;;;;;;5053926;28;19940;-68
2022/11/01 12:47:49;;;;;;;;;;;17.20;99.50;;;;;;5053738;28;19908;-69
2022/11/01 12:50:17;;;;;;;;;;;17.20;98.60;;;;;;5053755;28;20280;-68
2022/11/01 12:52:46;;;;;;;;;;;17.30;98.40;;;;;;5053728;28;19909;-69
2022/11/01 12:55:11;;;;;;;;;;;17.30;98.00;;;;;;5046804;28;19956;-68
2022/11/01 12:57:38;;;;;;;;;;;17.30;98.30;;;;;;5053645;28;19955;-68
2022/11/01 13:00:04;;;;;;;;;;;17.50;97.60;;;;;;5033920;28;19924;-68
2022/11/01 13:02:33;;;;;;;;;;;17.60;97.30;;;;;;5033708;28;19963;-69
2022/11/01 13:05:04;;;;;;;;;;;17.60;96.80;;;;;;5032917;28;19932;-69
2022/11/01 13:07:47;;;;;;;;;;;17.60;97.70;;;;;;5032538;28;20016;-69
2022/11/01 13:10:16;;;;;;;;;;;17.60;97.30;;;;;;5033994;28;19913;-67
2022/11/01 13:13:00;;;;;;;;;;;17.60;96.90;;;;;;5033551;28;19921;-68
2022/11/01 13:15:25;;;;;;;;;;;17.60;96.70;;;;;;5032667;28;19909;-69
2022/11/01 13:17:57;;;;;;;;;;;17.60;96.50;;;;;;5032370;28;19955;-69
2022/11/01 13:20:25;;;;;;;;;;;17.60;97.00;;;;;;5033584;28;19915;-69
2022/11/01 13:22:51;;;;;;;;;;;17.50;97.10;;;;;;5032174;28;20281;-69
2022/11/01 13:25:21;;;;;;;;;;;17.50;97.00;;;;;;5033806;28;19909;-68
2022/11/01 13:27:52;;;;;;;;;;;17.40;97.20;;;;;;5034054;28;19909;-67
2022/11/01 13:30:18;;;;;;;;;;;17.40;97.50;;;;;;5034021;28;20369;-68
2022/11/01 13:32:57;;;;;;;;;;;17.30;97.80;;;;;;5032430;28;20320;-69
2022/11/01 13:35:23;;;;;;;;;;;17.30;98.00;;;;;;5033736;28;19917;-69
2022/11/01 13:37:58;;;;;;;;;;;17.10;98.00;;;;;;5033672;28;19909;-68
2022/11/01 13:40:31;;;;;;;;;;;17.10;97.90;;;;;;5032130;28;19909;-67
2022/11/01 13:43:03;;;;;;;;;;;17.20;98.00;;;;;;5033478;28;19917;-69
2022/11/01 13:45:48;;;;;;;;;;;17.20;97.50;;;;;;5033337;28;19909;-69
2022/11/01 13:48:13;;;;;;;;;;;17.20;98.00;;;;;;5033599;28;19910;-68
2022/11/01 13:50:56;;;;;;;;;;;17.30;98.10;;;;;;5032188;28;19922;-69
2022/11/01 13:53:37;;;;;;;;;;;17.30;97.30;;;;;;5033257;28;19913;-67
2022/11/01 13:56:06;;;;;;;;;;;17.40;97.30;;;;;;5033233;28;20004;-68
2022/11/01 13:58:32;;;;;;;;;;;17.40;97.70;;;;;;5033477;28;20293;-68
2022/11/01 14:01:17;;;;;;;;;;;17.30;97.80;;;;;;5034033;28;19909;-69
2022/11/01 14:03:43;;;;;;;;;;;17.30;97.40;;;;;;5032917;28;19909;-69
2022/11/01 14:06:26;;;;;;;;;;;17.30;97.50;;;;;;5034860;28;19974;-69
2022/11/01 14:09:11;;;;;;;;;;;17.30;98.00;;;;;;5036912;28;20370;-68
2022/11/01 14:11:40;;;;;;;;;;;17.30;98.20;;;;;;5036981;28;19909;-70
2022/11/01 14:14:24;;;;;;;;;;;17.20;98.00;;;;;;5036879;28;20338;-69
2022/11/01 14:16:50;;;;;;;;;;;17.20;98.30;;;;;;5036812;28;19920;-69
2022/11/01 14:19:19;;;;;;;;;;;17.10;97.40;;;;;;5019151;28;19913;-68
2022/11/01 14:21:45;;;;;;;;;;;17.10;97.80;;;;;;5036703;28;19916;-67
2022/11/01 14:24:18;;;;;;;;;;;17.10;97.80;;;;;;5037016;28;19909;-68
2022/11/01 14:27:04;;;;;;;;;;;17.10;97.90;;;;;;5037003;28;19909;-68
2022/11/01 14:29:31;;;;;;;;;;;17.10;98.30;;;;;;5035902;28;19917;-68
2022/11/01 14:31:57;;;;;;;;;;;17.10;98.70;;;;;;5019595;28;19917;-69
2022/11/01 14:34:26;;;;;;;;;;;17.00;98.70;;;;;;5036790;28;19913;-67
2022/11/01 14:36:53;;;;;;;;;;;17.00;98.90;;;;;;5036516;28;19984;-68
2022/11/01 14:39:30;;;;;;;;;;;16.90;98.30;;;;;;5036752;28;20423;-69
2022/11/01 14:41:56;;;;;;;;;;;16.90;99.10;;;;;;5036358;28;19967;-69